createdAt,value
2019-04-20T00:01:05.377Z,97.40
2019-04-20T00:03:09.747Z,97.40
2019-04-20T00:05:13.404Z,97.40
2019-04-20T00:07:21.905Z,97.50
2019-04-20T00:09:26.520Z,97.40
2019-04-20T00:11:41.281Z,97.40
2019-04-20T00:13:45.350Z,97.50
2019-04-20T00:15:40.668Z,97.40
2019-04-20T00:17:50.826Z,97.50
2019-04-20T00:19:53.810Z,97.50
2019-04-20T00:22:04.496Z,97.30
2019-04-20T00:24:13.615Z,97.20
2019-04-20T00:26:24.893Z,97.20
2019-04-20T00:28:40.732Z,97.10
2019-04-20T00:30:46.966Z,97.10
2019-04-20T00:32:48.997Z,96.90
2019-04-20T00:34:42.408Z,97.10
2019-04-20T00:36:45.369Z,97.10
2019-04-20T00:38:53.649Z,97.10
2019-04-20T00:41:01.015Z,97.40
2019-04-20T00:43:01.479Z,97.70
2019-04-20T00:45:12.003Z,97.80
2019-04-20T00:47:29.592Z,98.00
2019-04-20T00:49:30.479Z,98.30
2019-04-20T00:51:39.235Z,98.50
2019-04-20T00:53:34.754Z,98.50
2019-04-20T00:55:34.270Z,98.60
2019-04-20T00:57:46.626Z,98.70
2019-04-20T01:00:04.700Z,98.70
2019-04-20T01:02:10.602Z,98.70
2019-04-20T01:04:14.841Z,99.00
2019-04-20T01:06:24.992Z,99.00
2019-04-20T01:08:12.820Z,99.30
2019-04-20T01:10:21.623Z,99.20
2019-04-20T01:12:28.562Z,99.40
2019-04-20T01:14:39.755Z,99.40
2019-04-20T01:16:45.198Z,99.30
2019-04-20T01:18:43.741Z,99.50
2019-04-20T01:20:47.649Z,99.70
2019-04-20T01:22:59.369Z,99.70
2019-04-20T01:25:06.889Z,99.90
2019-04-20T01:27:05.366Z,99.90
2019-04-20T01:29:20.210Z,99.90
2019-04-20T01:31:24.125Z,99.60
2019-04-20T01:33:34.327Z,99.40
2019-04-20T01:35:39.511Z,99.20
2019-04-20T01:37:40.880Z,99.20
2019-04-20T01:39:41.875Z,99.40
2019-04-20T01:41:41.371Z,99.20
2019-04-20T01:43:46.163Z,99.20
2019-04-20T01:45:58.683Z,98.90
2019-04-20T01:47:59.478Z,99.10
2019-04-20T01:50:08.396Z,98.50
2019-04-20T01:52:17.317Z,98.50
2019-04-20T01:54:29.739Z,98.40
2019-04-20T01:56:31.606Z,98.50
2019-04-20T01:58:58.526Z,98.60
2019-04-20T02:00:57.600Z,98.40
2019-04-20T02:03:08.193Z,98.20
2019-04-20T02:05:17.118Z,98.20
2019-04-20T02:07:25.473Z,98.30
2019-04-20T02:09:27.354Z,98.40
2019-04-20T02:11:34.585Z,98.40
2019-04-20T02:13:42.549Z,98.40
2019-04-20T02:15:45.121Z,98.50
2019-04-20T02:17:59.731Z,98.80
2019-04-20T02:20:10.717Z,98.90
2019-04-20T02:22:09.743Z,98.90
2019-04-20T02:24:04.671Z,98.90
2019-04-20T02:26:07.135Z,98.80
2019-04-20T02:28:27.415Z,98.90
2019-04-20T02:30:57.602Z,98.90
2019-04-20T02:33:03.646Z,99.00
2019-04-20T02:35:22.018Z,98.90
2019-04-20T02:37:26.413Z,99.10
2019-04-20T02:39:41.357Z,98.80
2019-04-20T02:45:49.085Z,99.30
2019-04-20T02:47:53.438Z,99.60
2019-04-20T02:49:56.649Z,99.90
2019-04-20T02:52:09.824Z,99.90
2019-04-20T02:54:15.009Z,99.90
2019-04-20T02:56:26.551Z,99.90
2019-04-20T02:58:23.663Z,99.90
2019-04-20T03:00:25.427Z,99.90
2019-04-20T03:02:18.509Z,99.90
2019-04-20T03:04:17.551Z,99.90
2019-04-20T03:06:22.792Z,99.90
2019-04-20T03:08:37.750Z,99.90
2019-04-20T03:10:54.518Z,99.90
2019-04-20T03:12:50.844Z,99.90
2019-04-20T03:14:47.819Z,99.90
2019-04-20T03:17:08.113Z,99.90
2019-04-20T03:19:06.796Z,99.90
2019-04-20T03:21:12.813Z,99.90
2019-04-20T03:25:45.261Z,99.90
2019-04-20T03:27:59.632Z,99.90
2019-04-20T03:30:05.857Z,99.90
2019-04-20T03:35:01.208Z,99.90
2019-04-20T03:36:43.007Z,99.90
2019-04-20T03:38:38.387Z,99.90
2019-04-20T03:40:41.345Z,99.90
2019-04-20T03:42:30.878Z,99.90
2019-04-20T03:44:36.247Z,99.90
2019-04-20T03:46:47.885Z,99.90
2019-04-20T03:48:58.617Z,99.90
2019-04-20T03:51:15.225Z,99.90
2019-04-20T03:53:19.104Z,99.90
2019-04-20T03:55:26.268Z,99.90
2019-04-20T03:57:42.194Z,99.90
2019-04-20T03:59:56.268Z,99.90
2019-04-20T04:02:21.875Z,99.90
2019-04-20T04:04:16.812Z,99.90
2019-04-20T04:06:12.409Z,99.90
2019-04-20T04:08:19.425Z,99.50
2019-04-20T04:10:24.951Z,98.10
2019-04-20T04:12:55.130Z,97.10
2019-04-20T04:14:59.845Z,96.40
2019-04-20T04:17:04.624Z,95.80
2019-04-20T04:19:19.264Z,94.10
2019-04-20T04:21:21.987Z,92.80
2019-04-20T04:23:38.324Z,91.20
2019-04-20T04:25:42.750Z,90.40
2019-04-20T04:27:49.303Z,88.80
2019-04-20T04:29:58.236Z,86.70
2019-04-20T04:32:12.268Z,82.60
2019-04-20T04:34:25.022Z,79.60
2019-04-20T04:36:12.997Z,77.40
2019-04-20T04:38:24.123Z,74.10
2019-04-20T04:40:31.676Z,71.90
2019-04-20T04:42:34.274Z,68.90
2019-04-20T04:44:30.548Z,66.80
2019-04-20T04:46:24.783Z,64.20
2019-04-20T04:48:35.080Z,61.50
2019-04-20T04:50:44.629Z,58.80
2019-04-20T04:52:52.186Z,57.30
2019-04-20T04:54:53.650Z,55.70
2019-04-20T04:56:50.553Z,53.20
2019-04-20T04:58:54.205Z,51.60
2019-04-20T05:01:05.536Z,51.00
2019-04-20T05:03:23.322Z,50.20
2019-04-20T05:05:47.256Z,48.50
2019-04-20T05:07:46.455Z,46.80
2019-04-20T05:09:37.993Z,45.10
2019-04-20T05:11:42.741Z,44.60
2019-04-20T05:13:55.697Z,43.90
2019-04-20T05:16:05.197Z,44.00
2019-04-20T05:18:18.245Z,43.70
2019-04-20T05:20:23.239Z,43.30
2019-04-20T05:22:35.163Z,42.40
2019-04-20T05:24:33.582Z,40.70
2019-04-20T05:26:53.344Z,41.40
2019-04-20T05:28:48.357Z,41.50
2019-04-20T05:30:51.679Z,41.00
2019-04-20T05:32:56.774Z,41.30
2019-04-20T05:35:14.685Z,40.90
2019-04-20T05:37:29.639Z,41.00
2019-04-20T05:41:34.432Z,41.40
2019-04-20T05:43:47.271Z,41.80
2019-04-20T05:45:49.940Z,41.40
2019-04-20T05:48:05.147Z,40.90
2019-04-20T05:50:03.600Z,40.00
2019-04-20T05:52:31.319Z,38.80
2019-04-20T05:54:19.234Z,38.10
2019-04-20T05:56:31.669Z,37.80
2019-04-20T05:58:34.413Z,37.40
2019-04-20T06:00:41.081Z,36.90
2019-04-20T06:02:46.944Z,35.90
2019-04-20T06:05:00.015Z,35.30
2019-04-20T06:06:56.716Z,34.80
2019-04-20T06:09:05.674Z,34.00
2019-04-20T06:11:09.412Z,33.90
2019-04-20T06:13:12.456Z,33.40
2019-04-20T06:15:42.057Z,32.70
2019-04-20T06:17:59.738Z,33.40
2019-04-20T06:20:12.624Z,33.20
2019-04-20T06:22:21.747Z,32.70
2019-04-20T06:24:29.304Z,32.40
2019-04-20T06:28:32.768Z,31.70
2019-04-20T06:30:34.858Z,32.30
2019-04-20T06:33:34.204Z,32.00
2019-04-20T06:35:45.490Z,31.60
2019-04-20T06:37:38.515Z,31.10
2019-04-20T06:39:42.634Z,31.00
2019-04-20T06:43:57.912Z,30.20
2019-04-20T06:46:04.437Z,30.00
2019-04-20T06:48:11.117Z,30.30
2019-04-20T06:50:07.200Z,30.40
2019-04-20T06:52:27.595Z,30.20
2019-04-20T06:54:29.600Z,30.50
2019-04-20T06:56:41.729Z,30.00
2019-04-20T06:58:50.924Z,30.20
2019-04-20T07:00:58.870Z,30.10
2019-04-20T07:02:59.020Z,30.00
2019-04-20T07:05:08.559Z,29.70
2019-04-20T07:07:14.364Z,30.20
2019-04-20T07:09:28.655Z,30.60
2019-04-20T07:11:23.956Z,31.00
2019-04-20T07:13:22.128Z,31.50
2019-04-20T07:15:30.262Z,31.70
2019-04-20T07:19:51.742Z,32.60
2019-04-20T07:22:26.349Z,33.60
2019-04-20T07:24:35.081Z,34.30
2019-04-20T07:26:39.977Z,32.90
2019-04-20T07:28:40.830Z,32.20
2019-04-20T07:30:48.575Z,32.50
2019-04-20T07:32:56.461Z,32.10
2019-04-20T07:34:58.590Z,30.80
2019-04-20T07:37:28.172Z,31.70
2019-04-20T07:39:07.577Z,32.50
2019-04-20T07:41:20.523Z,33.00
2019-04-20T07:43:16.405Z,33.50
2019-04-20T07:47:35.765Z,34.10
2019-04-20T07:49:36.990Z,34.10
2019-04-20T07:51:27.816Z,33.20
2019-04-20T07:53:36.266Z,31.90
2019-04-20T07:55:54.074Z,32.10
2019-04-20T07:57:52.845Z,32.60
2019-04-20T07:59:58.899Z,31.80
2019-04-20T08:02:17.244Z,31.50
2019-04-20T08:04:17.135Z,29.90
2019-04-20T08:06:16.482Z,29.70
2019-04-20T08:08:30.469Z,29.70
2019-04-20T08:10:35.327Z,29.00
2019-04-20T08:12:55.922Z,29.20
2019-04-20T08:15:04.753Z,28.90
2019-04-20T08:17:14.326Z,29.10
2019-04-20T08:19:05.235Z,30.10
2019-04-20T08:21:16.665Z,29.70
2019-04-20T08:23:17.211Z,30.00
2019-04-20T08:25:16.674Z,30.20
2019-04-20T08:27:13.142Z,30.00
2019-04-20T08:29:36.718Z,29.90
2019-04-20T08:31:40.663Z,29.80
2019-04-20T08:34:07.600Z,29.70
2019-04-20T08:36:04.356Z,29.50
2019-04-20T08:38:48.519Z,29.60
2019-04-20T08:40:13.244Z,28.80
2019-04-20T08:42:18.651Z,28.90
2019-04-20T08:46:34.446Z,30.30
2019-04-20T08:48:40.860Z,31.20
2019-04-20T08:50:45.197Z,33.10
2019-04-20T08:55:00.392Z,31.90
2019-04-20T08:56:47.065Z,32.90
2019-04-20T08:58:48.336Z,33.60
2019-04-20T09:00:58.775Z,31.90
2019-04-20T09:03:07.478Z,32.70
2019-04-20T09:05:23.979Z,34.00
2019-04-20T09:07:20.195Z,29.50
2019-04-20T09:09:56.442Z,28.00
2019-04-20T09:11:49.417Z,27.90
2019-04-20T09:13:39.601Z,28.80
2019-04-20T09:15:38.318Z,28.40
2019-04-20T09:18:00.890Z,28.60
2019-04-20T09:20:09.560Z,28.50
2019-04-20T09:22:34.010Z,29.50
2019-04-20T09:24:50.959Z,30.00
2019-04-20T09:26:54.291Z,29.80
2019-04-20T09:29:07.922Z,30.00
2019-04-20T09:31:13.232Z,30.40
2019-04-20T09:33:43.143Z,30.40
2019-04-20T09:35:48.634Z,29.50
2019-04-20T09:38:01.695Z,29.10
2019-04-20T09:40:25.524Z,29.40
2019-04-20T09:42:14.251Z,29.80
2019-04-20T09:44:17.877Z,29.00
2019-04-20T09:46:22.266Z,29.50
2019-04-20T09:48:38.391Z,28.30
2019-04-20T09:50:50.575Z,27.70
2019-04-20T09:52:51.599Z,27.30
2019-04-20T09:54:59.267Z,27.30
2019-04-20T09:57:09.356Z,26.60
2019-04-20T09:59:12.320Z,25.90
2019-04-20T10:01:14.582Z,27.60
2019-04-20T10:03:06.641Z,26.60
2019-04-20T10:05:11.511Z,25.70
2019-04-20T10:07:19.547Z,24.40
2019-04-20T10:09:29.482Z,25.60
2019-04-20T10:11:27.528Z,26.40
2019-04-20T10:13:34.249Z,27.70
2019-04-20T10:15:38.024Z,27.30
2019-04-20T10:17:41.852Z,27.00
2019-04-20T10:19:46.576Z,26.60
2019-04-20T10:21:50.865Z,26.80
2019-04-20T10:23:54.646Z,27.60
2019-04-20T10:25:58.870Z,26.30
2019-04-20T10:28:03.364Z,26.40
2019-04-20T10:30:08.229Z,27.00
2019-04-20T10:32:15.582Z,25.20
2019-04-20T10:34:20.784Z,25.90
2019-04-20T10:36:43.760Z,26.00
2019-04-20T10:38:48.528Z,25.70
2019-04-20T10:41:03.512Z,23.00
2019-04-20T10:42:59.820Z,24.40
2019-04-20T10:45:04.213Z,24.60
2019-04-20T10:47:09.152Z,21.70
2019-04-20T10:49:13.392Z,22.30
2019-04-20T10:51:19.744Z,23.00
2019-04-20T10:53:23.779Z,21.60
2019-04-20T10:55:27.569Z,23.60
2019-04-20T10:57:31.491Z,24.50
2019-04-20T10:59:35.243Z,23.50
2019-04-20T11:01:40.083Z,23.30
2019-04-20T11:03:44.873Z,24.50
2019-04-20T11:05:49.045Z,23.80
2019-04-20T11:07:53.112Z,23.80
2019-04-20T11:10:07.968Z,24.20
2019-04-20T11:12:02.322Z,25.00
2019-04-20T11:14:15.571Z,25.60
2019-04-20T11:16:12.666Z,25.30
2019-04-20T11:18:17.604Z,24.30
2019-04-20T11:20:21.822Z,25.10
2019-04-20T11:22:26.270Z,27.10
2019-04-20T11:24:30.451Z,27.50
2019-04-20T11:26:37.083Z,26.60
2019-04-20T11:28:40.454Z,27.10
2019-04-20T11:30:45.985Z,26.60
2019-04-20T11:32:51.815Z,27.50
2019-04-20T11:34:56.728Z,27.60
2019-04-20T11:37:01.410Z,26.70
2019-04-20T11:39:09.342Z,26.90
2019-04-20T11:41:19.963Z,25.50
2019-04-20T11:43:19.816Z,25.10
2019-04-20T11:45:24.741Z,26.10
2019-04-20T11:47:29.647Z,26.00
2019-04-20T11:49:33.474Z,24.90
2019-04-20T11:51:37.400Z,26.50
2019-04-20T11:53:42.694Z,26.40
2019-04-20T11:55:46.641Z,26.20
2019-04-20T11:57:51.353Z,26.70
2019-04-20T11:59:55.137Z,26.00
2019-04-20T12:02:21.619Z,27.10
2019-04-20T12:04:34.090Z,27.50
2019-04-20T12:06:26.550Z,27.40
2019-04-20T12:08:31.169Z,26.80
2019-04-20T12:10:37.219Z,25.80
2019-04-20T12:12:46.709Z,25.10
2019-04-20T12:14:48.470Z,24.30
2019-04-20T12:16:53.388Z,26.50
2019-04-20T12:18:57.566Z,26.70
2019-04-20T12:21:03.223Z,25.00
2019-04-20T12:23:10.574Z,25.30
2019-04-20T12:25:14.479Z,25.80
2019-04-20T12:27:18.661Z,25.50
2019-04-20T12:29:23.786Z,25.30
2019-04-20T12:31:29.405Z,24.50
2019-04-20T12:33:34.552Z,23.80
2019-04-20T12:35:40.083Z,23.30
2019-04-20T12:37:47.235Z,23.70
2019-04-20T12:39:51.479Z,22.70
2019-04-20T12:41:58.871Z,23.80
2019-04-20T12:44:01.727Z,22.60
2019-04-20T12:46:05.587Z,21.30
2019-04-20T12:48:09.377Z,22.60
2019-04-20T12:50:14.127Z,23.70
2019-04-20T12:52:18.979Z,24.10
2019-04-20T12:54:29.279Z,23.80
2019-04-20T12:56:30.678Z,23.90
2019-04-20T12:58:34.660Z,24.40
2019-04-20T13:00:45.896Z,24.00
2019-04-20T13:02:49.949Z,24.60
2019-04-20T13:04:55.266Z,23.40
2019-04-20T13:06:59.656Z,23.50
2019-04-20T13:09:05.713Z,22.90
2019-04-20T13:11:11.166Z,23.60
2019-04-20T13:13:26.186Z,24.40
2019-04-20T13:15:38.296Z,25.10
2019-04-20T13:17:42.259Z,24.80
2019-04-20T13:19:47.103Z,25.10
2019-04-20T13:21:51.097Z,25.40
2019-04-20T13:23:56.246Z,24.30
2019-04-20T13:26:02.237Z,23.70
2019-04-20T13:28:07.321Z,23.90
2019-04-20T13:30:11.386Z,25.00
2019-04-20T13:32:15.965Z,24.50
2019-04-20T13:34:20.226Z,24.70
2019-04-20T13:36:24.506Z,25.10
2019-04-20T13:38:28.207Z,23.70
2019-04-20T13:40:33.181Z,22.80
2019-04-20T13:42:38.226Z,23.30
2019-04-20T13:44:43.229Z,24.10
2019-04-20T13:46:47.174Z,22.00
2019-04-20T13:48:53.092Z,22.00
2019-04-20T13:50:58.164Z,21.30
2019-04-20T13:53:03.339Z,21.60
2019-04-20T13:55:08.744Z,22.20
2019-04-20T13:57:23.927Z,22.50
2019-04-20T13:59:33.894Z,21.10
2019-04-20T14:01:46.677Z,21.20
2019-04-20T14:04:05.269Z,22.00
2019-04-20T14:06:09.281Z,22.40
2019-04-20T14:08:17.555Z,21.60
2019-04-20T14:10:23.670Z,22.10
2019-04-20T14:12:32.371Z,22.00
2019-04-20T14:14:33.185Z,21.40
2019-04-20T14:16:39.016Z,21.40
2019-04-20T14:18:43.237Z,21.00
2019-04-20T14:20:47.951Z,20.90
2019-04-20T14:22:52.503Z,19.80
2019-04-20T14:24:57.316Z,20.90
2019-04-20T14:27:01.481Z,21.20
2019-04-20T14:29:05.502Z,22.40
2019-04-20T14:31:09.877Z,22.40
2019-04-20T14:33:14.770Z,22.40
2019-04-20T14:35:19.149Z,22.10
2019-04-20T14:37:25.005Z,22.60
2019-04-20T14:39:30.264Z,22.50
2019-04-20T14:41:34.394Z,22.60
2019-04-20T14:43:39.844Z,22.80
2019-04-20T14:45:44.676Z,23.40
2019-04-20T14:47:49.968Z,23.70
2019-04-20T14:49:55.160Z,23.70
2019-04-20T14:52:01.132Z,23.50
2019-04-20T14:54:05.506Z,24.20
2019-04-20T14:56:09.666Z,24.20
2019-04-20T14:58:31.576Z,25.90
2019-04-20T15:00:54.869Z,25.90
2019-04-20T15:03:01.842Z,25.70
2019-04-20T15:05:07.405Z,26.10
2019-04-20T15:07:13.009Z,26.30
2019-04-20T15:09:16.971Z,25.90
2019-04-20T15:11:21.046Z,26.10
2019-04-20T15:13:25.146Z,25.70
2019-04-20T15:15:28.956Z,26.50
2019-04-20T15:17:37.504Z,27.00
2019-04-20T15:19:45.539Z,27.20
2019-04-20T15:21:57.729Z,27.40
2019-04-20T15:24:01.760Z,27.60
2019-04-20T15:26:06.591Z,25.30
2019-04-20T15:28:10.521Z,26.20
2019-04-20T15:30:16.230Z,26.70
2019-04-20T15:32:20.818Z,26.10
2019-04-20T15:34:24.785Z,26.00
2019-04-20T15:36:28.975Z,26.80
2019-04-20T15:38:33.346Z,27.00
2019-04-20T15:40:37.269Z,27.20
2019-04-20T15:42:53.780Z,27.70
2019-04-20T15:44:47.263Z,28.60
2019-04-20T15:46:51.352Z,29.10
2019-04-20T15:48:55.833Z,29.40
2019-04-20T15:50:59.746Z,29.80
2019-04-20T15:53:04.112Z,29.70
2019-04-20T15:55:17.014Z,30.00
2019-04-20T15:57:18.351Z,30.00
2019-04-20T15:59:20.086Z,30.00
2019-04-20T16:01:26.083Z,30.10
2019-04-20T16:03:33.015Z,30.70
2019-04-20T16:05:47.210Z,30.90
2019-04-20T16:07:56.289Z,31.30
2019-04-20T16:09:56.896Z,31.90
2019-04-20T16:12:02.589Z,31.90
2019-04-20T16:14:07.269Z,31.70
2019-04-20T16:16:12.107Z,31.60
2019-04-20T16:18:16.913Z,31.80
2019-04-20T16:20:23.539Z,32.00
2019-04-20T16:22:28.925Z,31.30
2019-04-20T16:24:44.840Z,31.60
2019-04-20T16:26:51.588Z,31.70
2019-04-20T16:28:55.790Z,32.20
2019-04-20T16:31:01.494Z,32.10
2019-04-20T16:33:06.305Z,32.10
2019-04-20T16:35:10.935Z,32.10
2019-04-20T16:37:16.917Z,32.10
2019-04-20T16:39:21.054Z,30.30
2019-04-20T16:41:26.314Z,31.00
2019-04-20T16:43:35.812Z,31.20
2019-04-20T16:45:37.153Z,31.20
2019-04-20T16:47:42.159Z,31.20
2019-04-20T16:49:46.730Z,30.90
2019-04-20T16:51:50.610Z,31.20
2019-04-20T16:53:56.010Z,31.20
2019-04-20T16:56:01.204Z,31.60
2019-04-20T16:58:05.960Z,31.20
2019-04-20T17:00:11.670Z,31.40
2019-04-20T17:02:17.448Z,31.60
2019-04-20T17:04:24.030Z,32.00
2019-04-20T17:06:26.814Z,32.20
2019-04-20T17:08:31.169Z,32.50
2019-04-20T17:10:35.095Z,32.90
2019-04-20T17:12:39.943Z,32.80
2019-04-20T17:14:43.745Z,32.90
2019-04-20T17:16:47.404Z,33.00
2019-04-20T17:18:51.967Z,33.10
2019-04-20T17:24:35.805Z,33.10
2019-04-20T17:26:59.092Z,33.50
2019-04-20T17:29:15.920Z,33.80
2019-04-20T17:31:25.225Z,34.30
2019-04-20T17:33:32.555Z,33.90
2019-04-20T17:35:47.291Z,33.90
2019-04-20T17:37:45.099Z,34.20
2019-04-20T17:44:12.583Z,33.90
2019-04-20T17:46:06.829Z,33.80
2019-04-20T17:48:14.668Z,34.20
2019-04-20T17:53:57.683Z,35.00
2019-04-20T17:55:57.369Z,35.70
2019-04-20T17:58:01.739Z,36.10
2019-04-20T18:04:24.494Z,36.60
2019-04-20T18:06:21.259Z,37.60
2019-04-20T18:08:29.915Z,37.90
2019-04-20T18:14:31.454Z,37.60
2019-04-20T18:16:46.831Z,37.90
2019-04-20T18:18:59.536Z,37.60
2019-04-20T18:20:56.912Z,38.20
2019-04-20T18:23:02.539Z,38.30
2019-04-20T18:25:32.520Z,38.60
2019-04-20T18:27:37.380Z,38.50
2019-04-20T18:29:37.379Z,38.80
2019-04-20T18:31:41.835Z,39.50
2019-04-20T18:33:46.533Z,40.20
2019-04-20T18:35:50.796Z,40.90
2019-04-20T18:38:00.819Z,41.40
2019-04-20T18:40:07.341Z,41.90
2019-04-20T18:42:16.487Z,42.50
2019-04-20T18:44:14.812Z,43.00
2019-04-20T18:46:44.023Z,43.40
2019-04-20T18:48:44.682Z,43.80
2019-04-20T18:50:35.359Z,43.90
2019-04-20T18:52:35.832Z,44.10
2019-04-20T18:54:44.131Z,44.30
2019-04-20T18:56:56.796Z,44.50
2019-04-20T18:59:01.128Z,44.60
2019-04-20T19:01:05.360Z,44.60
2019-04-20T19:03:18.319Z,44.80
2019-04-20T19:05:15.868Z,45.00
2019-04-20T19:07:19.971Z,45.30
2019-04-20T19:09:28.116Z,45.80
2019-04-20T19:11:30.808Z,46.10
2019-04-20T19:13:43.455Z,46.40
2019-04-20T19:16:00.161Z,46.80
2019-04-20T19:18:06.592Z,47.00
2019-04-20T19:20:20.206Z,47.40
2019-04-20T19:22:24.107Z,47.70
2019-04-20T19:24:32.753Z,48.00
2019-04-20T19:26:34.344Z,48.30
2019-04-20T19:28:45.156Z,48.50
2019-04-20T19:30:50.207Z,48.50
2019-04-20T19:33:09.112Z,48.80
2019-04-20T19:35:04.345Z,49.00
2019-04-20T19:37:14.058Z,49.30
2019-04-20T19:39:23.502Z,49.40
2019-04-20T19:41:25.387Z,50.00
2019-04-20T19:43:25.364Z,50.40
2019-04-20T19:45:46.616Z,50.60
2019-04-20T19:47:47.987Z,51.70
2019-04-20T19:49:47.256Z,52.50
2019-04-20T19:52:14.903Z,53.20
2019-04-20T19:54:09.498Z,53.60
2019-04-20T19:56:05.356Z,54.10
2019-04-20T19:58:14.114Z,54.60
2019-04-20T20:00:07.795Z,55.30
2019-04-20T20:02:11.862Z,55.90
2019-04-20T20:04:15.746Z,56.40
2019-04-20T20:06:29.289Z,57.10
2019-04-20T20:08:29.560Z,57.90
2019-04-20T20:10:37.248Z,58.50
2019-04-20T20:12:41.236Z,59.20
2019-04-20T20:14:47.535Z,59.80
2019-04-20T20:17:14.198Z,60.70
2019-04-20T20:19:05.765Z,61.80
2019-04-20T20:21:16.181Z,63.30
2019-04-20T20:23:07.894Z,64.20
2019-04-20T20:25:12.804Z,64.80
2019-04-20T20:27:25.682Z,65.60
2019-04-20T20:29:33.521Z,66.60
2019-04-20T20:31:47.029Z,67.90
2019-04-20T20:33:53.373Z,68.20
2019-04-20T20:35:49.320Z,69.30
2019-04-20T20:37:53.458Z,69.80
2019-04-20T20:39:59.326Z,70.30
2019-04-20T20:42:14.316Z,71.00
2019-04-20T20:44:14.022Z,71.60
2019-04-20T20:46:20.057Z,72.40
2019-04-20T20:48:29.690Z,72.30
2019-04-20T20:50:43.182Z,72.90
2019-04-20T20:52:42.925Z,73.20
2019-04-20T20:54:46.033Z,73.60
2019-04-20T20:56:52.707Z,74.60
2019-04-20T20:58:59.497Z,75.00
2019-04-20T21:01:03.642Z,75.50
2019-04-20T21:03:05.516Z,76.60
2019-04-20T21:05:06.999Z,77.10
2019-04-20T21:07:10.990Z,77.40
2019-04-20T21:09:16.539Z,77.30
2019-04-20T21:11:27.109Z,77.40
2019-04-20T21:13:34.484Z,77.80
2019-04-20T21:15:33.253Z,77.90
2019-04-20T21:17:55.912Z,78.20
2019-04-20T21:19:58.366Z,78.60
2019-04-20T21:21:55.910Z,78.90
2019-04-20T21:24:06.631Z,79.50
2019-04-20T21:26:12.767Z,79.70
2019-04-20T21:28:13.147Z,80.50
2019-04-20T21:30:24.016Z,81.10
2019-04-20T21:32:23.724Z,81.30
2019-04-20T21:34:29.012Z,81.50
2019-04-20T21:36:33.521Z,81.60
2019-04-20T21:38:41.457Z,82.30
2019-04-20T21:40:47.587Z,83.60
2019-04-20T21:42:55.582Z,83.60
2019-04-20T21:45:05.645Z,83.70
2019-04-20T21:47:01.979Z,83.80
2019-04-20T21:49:23.861Z,84.00
2019-04-20T21:51:27.506Z,84.50
2019-04-20T21:53:23.114Z,84.80
2019-04-20T21:55:23.767Z,85.30
2019-04-20T21:57:31.312Z,85.60
2019-04-20T21:59:40.923Z,85.60
2019-04-20T22:01:46.360Z,85.70
2019-04-20T22:03:44.864Z,85.80
2019-04-20T22:05:48.595Z,85.60
2019-04-20T22:07:52.598Z,85.80
2019-04-20T22:09:57.146Z,86.10
2019-04-20T22:12:03.436Z,86.50
2019-04-20T22:14:14.653Z,86.60
2019-04-20T22:16:15.156Z,87.60
2019-04-20T22:18:23.125Z,86.90
2019-04-20T22:20:33.454Z,86.80
2019-04-20T22:22:50.932Z,86.90
2019-04-20T22:24:54.876Z,87.00
2019-04-20T22:26:54.927Z,87.30
2019-04-20T22:28:47.948Z,87.70
2019-04-20T22:30:52.117Z,87.90
2019-04-20T22:32:59.544Z,88.10
2019-04-20T22:35:08.811Z,88.20
2019-04-20T22:37:17.830Z,88.40
2019-04-20T22:39:33.649Z,88.90
2019-04-20T22:41:30.317Z,89.00
2019-04-20T22:43:38.229Z,89.40
2019-04-20T22:45:46.619Z,89.30
2019-04-20T22:47:45.939Z,89.60
2019-04-20T22:50:07.932Z,89.80
2019-04-20T22:52:04.073Z,90.00
2019-04-20T22:54:17.292Z,90.00
2019-04-20T22:56:24.341Z,90.20
2019-04-20T22:58:27.665Z,90.20
2019-04-20T23:00:31.063Z,90.40
2019-04-20T23:02:26.492Z,90.30
2019-04-20T23:04:30.857Z,90.40
2019-04-20T23:06:40.097Z,90.40
2019-04-20T23:08:40.587Z,90.50
2019-04-20T23:10:46.820Z,90.50
2019-04-20T23:12:54.480Z,90.60
2019-04-20T23:14:56.442Z,90.70
2019-04-20T23:17:00.374Z,90.90
2019-04-20T23:19:04.415Z,91.10
2019-04-20T23:21:11.990Z,91.20
2019-04-20T23:23:18.165Z,91.30
2019-04-20T23:25:20.845Z,91.50
2019-04-20T23:27:29.351Z,91.70
2019-04-20T23:29:34.580Z,91.90
2019-04-20T23:31:38.943Z,92.00
2019-04-20T23:33:41.026Z,92.10
2019-04-20T23:35:51.926Z,92.30
2019-04-20T23:37:50.774Z,92.40
2019-04-20T23:39:56.178Z,92.50
2019-04-20T23:42:03.918Z,92.50
2019-04-20T23:44:15.923Z,92.60
2019-04-20T23:46:27.533Z,92.50
2019-04-20T23:48:46.500Z,92.60
2019-04-20T23:51:08.462Z,92.70
2019-04-20T23:53:14.125Z,92.60
2019-04-20T23:55:06.288Z,92.70
2019-04-20T23:57:08.111Z,92.70
2019-04-20T23:59:12.818Z,92.70
